Nalcrest, Florida
Current Conditions -  °F | °C
As of 6:15 AM on Wednesday 26 Nov 2014 (Local Time) from KBOW Reporting Station
Drizzle Drizzle  
Wind Chill: 55°   Ceiling: 600
Heat Index: 55°   Visibility: 8mi
Dew Point: 55°   Wind: 20mph
Humidity: 100%   Direction: 290°WNW
Pressure: 30.01"   Gusts: 31mph
Location:  27.86°N, 81.43°W
Report Text: KBOW 261115Z AUTO 29017G27KT 8SM -DZ BKN006 BKN010 OVC024 13/13 A3001 RMK AO2
Loading
Personal Weather Stations






























Interactive Weather Map New forecast layout! Learn more

10-Day Weather Forecast

Advertisements
Track Severe Weather on mobile